createdAt,value
2022-11-29T00:00:53.045Z,99841.75
2022-11-29T00:02:26.639Z,99833.03
2022-11-29T00:04:00.387Z,99840.00
2022-11-29T00:05:35.671Z,99841.75
2022-11-29T00:07:09.089Z,99813.84
2022-11-29T00:08:45.829Z,99828.69
2022-11-29T00:10:19.595Z,99826.06
2022-11-29T00:12:12.548Z,99827.78
2022-11-29T00:13:48.282Z,99812.13
2022-11-29T00:15:23.166Z,99828.66
2022-11-29T00:16:59.442Z,99832.16
2022-11-29T00:18:33.312Z,99833.03
2022-11-29T00:20:17.989Z,99822.56
2022-11-29T00:21:51.404Z,99819.94
2022-11-29T00:23:24.787Z,99832.16
2022-11-29T00:24:58.180Z,99832.16
2022-11-29T00:26:31.663Z,99831.25
2022-11-29T00:28:05.842Z,99821.69
2022-11-29T00:29:39.162Z,99831.28
2022-11-29T00:31:24.176Z,99821.69
2022-11-29T00:32:58.830Z,99805.13
2022-11-29T00:34:32.143Z,99833.00
2022-11-29T00:36:04.790Z,99828.66
2022-11-29T00:37:38.806Z,99837.34
2022-11-29T00:39:13.129Z,99829.50
2022-11-29T00:40:51.418Z,99839.97
2022-11-29T00:42:25.679Z,99833.88
2022-11-29T00:43:58.977Z,99843.47
2022-11-29T00:45:34.064Z,99838.22
2022-11-29T00:47:09.090Z,99825.16
2022-11-29T00:48:42.521Z,99829.50
2022-11-29T00:50:16.463Z,99823.38
2022-11-29T00:51:49.810Z,99826.88
2022-11-29T00:53:23.366Z,99836.50
2022-11-29T00:54:56.900Z,99818.19
2022-11-29T00:56:30.478Z,99820.78
2022-11-29T00:58:03.696Z,99820.81
2022-11-29T00:59:36.927Z,99807.72
2022-11-29T01:01:11.842Z,99817.31
2022-11-29T01:02:46.559Z,99816.47
2022-11-29T01:04:20.244Z,99820.81
2022-11-29T01:05:53.825Z,99826.03
2022-11-29T01:07:28.228Z,99829.53
2022-11-29T01:09:01.709Z,99820.81
2022-11-29T01:10:34.929Z,99825.19
2022-11-29T01:12:09.064Z,99824.31
2022-11-29T01:13:43.715Z,99828.66
2022-11-29T01:15:18.584Z,99830.41
2022-11-29T01:16:51.960Z,99825.19
2022-11-29T01:18:28.222Z,99821.69
2022-11-29T01:20:02.072Z,99827.78
2022-11-29T01:21:36.069Z,99829.53
2022-11-29T01:23:12.511Z,99826.94
2022-11-29T01:24:46.043Z,99828.66
2022-11-29T01:26:22.775Z,99823.44
2022-11-29T01:27:56.709Z,99826.94
2022-11-29T01:29:29.955Z,99838.25
2022-11-29T01:31:07.141Z,99810.41
2022-11-29T01:32:42.660Z,99827.78
2022-11-29T01:34:17.439Z,99822.56
2022-11-29T01:35:50.961Z,99815.63
2022-11-29T01:37:25.866Z,99821.69
2022-11-29T01:39:06.775Z,99819.97
2022-11-29T01:40:42.106Z,99824.31
2022-11-29T01:42:16.470Z,99817.34
2022-11-29T01:43:56.379Z,99820.81
2022-11-29T01:45:33.833Z,99818.22
2022-11-29T01:47:08.896Z,99815.59
2022-11-29T01:48:42.275Z,99814.75
2022-11-29T01:50:22.097Z,99825.19
2022-11-29T01:52:02.265Z,99817.34
2022-11-29T01:53:35.658Z,99809.50
2022-11-29T01:55:10.535Z,99815.63
2022-11-29T01:56:49.052Z,99818.22
2022-11-29T01:58:23.298Z,99818.22
2022-11-29T02:00:03.255Z,99806.91
2022-11-29T02:01:47.746Z,99813.84
2022-11-29T02:03:20.114Z,99817.34
2022-11-29T02:04:56.437Z,99817.34
2022-11-29T02:06:33.405Z,99822.59
2022-11-29T02:08:08.254Z,99826.06
2022-11-29T02:09:40.706Z,99822.59
2022-11-29T02:11:31.067Z,99820.81
2022-11-29T02:13:21.615Z,99824.31
2022-11-29T02:15:10.014Z,99806.91
2022-11-29T02:16:56.671Z,99815.59
2022-11-29T02:18:42.288Z,99799.03
2022-11-29T02:20:48.042Z,99817.34
2022-11-29T02:22:30.392Z,99810.41
2022-11-29T02:24:23.558Z,99813.84
2022-11-29T02:26:12.561Z,99815.63
2022-11-29T02:28:34.917Z,99817.34
2022-11-29T02:30:21.236Z,99813.00
2022-11-29T02:32:30.022Z,99834.78
2022-11-29T02:34:21.020Z,99839.16
2022-11-29T02:36:32.240Z,99831.31
2022-11-29T02:38:23.103Z,99827.81
2022-11-29T02:40:24.579Z,99834.75
2022-11-29T02:42:16.621Z,99836.53
2022-11-29T02:44:22.099Z,99833.03
2022-11-29T02:46:10.116Z,99833.03
2022-11-29T02:47:57.020Z,99839.16
2022-11-29T02:49:56.212Z,99832.19
2022-11-29T02:51:37.988Z,99829.56
2022-11-29T02:53:20.492Z,99833.06
2022-11-29T02:54:59.622Z,99831.31
2022-11-29T02:56:41.127Z,99833.03
2022-11-29T02:58:26.729Z,99826.06
2022-11-29T03:00:07.267Z,99814.75
2022-11-29T03:01:51.498Z,99820.81
2022-11-29T03:03:32.933Z,99826.94
2022-11-29T03:05:19.833Z,99828.69
2022-11-29T03:07:02.223Z,99834.72
2022-11-29T03:08:42.210Z,99833.00
2022-11-29T03:10:30.625Z,99829.53
2022-11-29T03:12:16.751Z,99836.47
2022-11-29T03:13:57.242Z,99829.53
2022-11-29T03:15:34.040Z,99833.88
2022-11-29T03:17:22.355Z,99834.72
2022-11-29T03:19:06.843Z,99828.66
2022-11-29T03:20:54.314Z,99839.97
2022-11-29T03:22:36.388Z,99829.53
2022-11-29T03:24:17.071Z,99835.59
2022-11-29T03:25:58.552Z,99827.75
2022-11-29T03:27:39.756Z,99831.25
2022-11-29T03:29:23.044Z,99827.78
2022-11-29T03:31:05.364Z,99836.50
2022-11-29T03:32:49.818Z,99826.91
2022-11-29T03:34:31.003Z,99839.09
2022-11-29T03:36:14.165Z,99834.72
2022-11-29T03:37:55.926Z,99844.31
2022-11-29T03:39:36.941Z,99836.47
2022-11-29T03:41:26.456Z,99843.44
2022-11-29T03:43:08.034Z,99844.31
2022-11-29T03:44:50.541Z,99837.34
2022-11-29T03:46:33.278Z,99831.25
2022-11-29T03:48:11.093Z,99833.84
2022-11-29T03:49:50.114Z,99812.94
2022-11-29T03:51:30.370Z,99835.59
2022-11-29T03:53:12.694Z,99832.09
2022-11-29T03:54:57.777Z,99832.97
2022-11-29T03:56:34.608Z,99814.69
2022-11-29T03:58:22.255Z,99832.97
2022-11-29T04:00:05.099Z,99836.44
2022-11-29T04:02:18.063Z,99839.06
2022-11-29T04:04:14.494Z,99841.69
2022-11-29T04:06:25.339Z,99845.16
2022-11-29T04:08:17.145Z,99834.72
2022-11-29T04:10:18.147Z,99839.06
2022-11-29T04:12:28.563Z,99842.56
2022-11-29T04:14:42.619Z,99839.03
2022-11-29T04:16:50.706Z,99843.41
2022-11-29T04:19:05.937Z,99834.69
2022-11-29T04:21:06.045Z,99846.00
2022-11-29T04:23:06.601Z,99842.50
2022-11-29T04:25:06.404Z,99844.25
2022-11-29T04:27:23.083Z,99831.19
2022-11-29T04:29:15.112Z,99853.88
2022-11-29T04:31:00.835Z,99839.91
2022-11-29T04:33:08.245Z,99842.50
2022-11-29T04:35:00.822Z,99847.75
2022-11-29T04:37:01.661Z,99857.31
2022-11-29T04:38:58.561Z,99852.09
2022-11-29T04:41:06.512Z,99853.81
2022-11-29T04:43:15.563Z,99855.56
2022-11-29T04:45:08.078Z,99856.44
2022-11-29T04:46:56.685Z,99850.34
2022-11-29T04:48:48.405Z,99863.44
2022-11-29T04:50:49.273Z,99859.06
2022-11-29T04:52:38.011Z,99865.19
2022-11-29T04:54:25.900Z,99859.97
2022-11-29T04:56:12.788Z,99857.38
2022-11-29T04:57:53.115Z,99852.13
2022-11-29T04:59:33.235Z,99862.53
2022-11-29T05:01:15.816Z,99856.41
2022-11-29T05:02:56.516Z,99866.84
2022-11-29T05:04:37.704Z,99867.69
2022-11-29T05:06:24.905Z,99869.47
2022-11-29T05:08:17.523Z,99858.13
2022-11-29T05:10:00.275Z,99866.84
2022-11-29T05:11:56.014Z,99859.84
2022-11-29T05:13:40.279Z,99863.34
2022-11-29T05:15:34.207Z,99856.34
2022-11-29T05:17:25.947Z,99869.41
2022-11-29T05:19:12.822Z,99861.59
2022-11-29T05:20:50.719Z,99862.41
2022-11-29T05:22:32.078Z,99852.78
2022-11-29T05:24:18.537Z,99864.09
2022-11-29T05:25:59.654Z,99869.34
2022-11-29T05:27:44.637Z,99864.16
2022-11-29T05:29:27.952Z,99857.19
2022-11-29T05:31:26.239Z,99871.16
2022-11-29T05:33:10.911Z,99867.66
2022-11-29T05:35:04.508Z,99872.00
2022-11-29T05:36:44.887Z,99874.66
2022-11-29T05:38:40.353Z,99869.44
2022-11-29T05:40:40.591Z,99874.66
2022-11-29T05:42:37.124Z,99879.03
2022-11-29T05:44:17.094Z,99879.91
2022-11-29T05:45:55.835Z,99882.50
2022-11-29T05:47:38.020Z,99883.41
2022-11-29T05:49:23.387Z,99886.91
2022-11-29T05:51:07.069Z,99889.50
2022-11-29T05:52:51.899Z,99885.16
2022-11-29T05:54:29.610Z,99885.19
2022-11-29T05:56:10.501Z,99881.69
2022-11-29T05:57:53.872Z,99893.88
2022-11-29T05:59:31.331Z,99888.66
2022-11-29T06:01:19.732Z,99888.63
2022-11-29T06:03:00.938Z,99892.13
2022-11-29T06:04:58.136Z,99890.34
2022-11-29T06:06:41.318Z,99892.94
2022-11-29T06:08:20.849Z,99892.94
2022-11-29T06:10:02.144Z,99891.22
2022-11-29T06:11:41.852Z,99896.44
2022-11-29T06:13:22.701Z,99897.31
2022-11-29T06:15:30.221Z,99892.09
2022-11-29T06:17:39.196Z,99888.59
2022-11-29T06:19:30.525Z,99897.31
2022-11-29T06:21:17.620Z,99892.97
2022-11-29T06:23:18.688Z,99895.56
2022-11-29T06:25:09.490Z,99894.69
2022-11-29T06:26:58.318Z,99895.56
2022-11-29T06:28:45.803Z,99904.25
2022-11-29T06:30:25.201Z,99903.41
2022-11-29T06:32:09.011Z,99894.72
2022-11-29T06:33:48.615Z,99899.09
2022-11-29T06:35:37.062Z,99897.38
2022-11-29T06:37:18.535Z,99893.91
2022-11-29T06:38:52.052Z,99875.59
2022-11-29T06:40:29.074Z,99893.91
2022-11-29T06:42:02.285Z,99898.22
2022-11-29T06:43:37.704Z,99894.78
2022-11-29T06:45:14.648Z,99893.88
2022-11-29T06:46:53.436Z,99886.03
2022-11-29T06:48:29.008Z,99882.53
2022-11-29T06:50:25.727Z,99886.06
2022-11-29T06:52:10.060Z,99893.00
2022-11-29T06:53:50.399Z,99894.72
2022-11-29T06:55:29.749Z,99892.13
2022-11-29T06:57:14.379Z,99895.59
2022-11-29T06:58:57.721Z,99890.34
2022-11-29T07:00:41.742Z,99885.97
2022-11-29T07:02:35.598Z,99893.81
2022-11-29T07:04:22.139Z,99899.03
2022-11-29T07:05:56.129Z,99893.81
2022-11-29T07:07:30.217Z,99894.66
2022-11-29T07:09:13.314Z,99885.91
2022-11-29T07:10:50.222Z,99894.66
2022-11-29T07:12:24.775Z,99898.16
2022-11-29T07:13:58.541Z,99897.28
2022-11-29T07:15:34.336Z,99887.72
2022-11-29T07:17:18.363Z,99897.31
2022-11-29T07:19:02.366Z,99894.75
2022-11-29T07:20:42.465Z,99890.41
2022-11-29T07:22:33.499Z,99893.88
2022-11-29T07:24:17.893Z,99895.63
2022-11-29T07:26:06.340Z,99892.16
2022-11-29T07:27:45.992Z,99892.13
2022-11-29T07:29:30.824Z,99898.22
2022-11-29T07:31:13.067Z,99895.63
2022-11-29T07:33:00.610Z,99893.88
2022-11-29T07:34:45.286Z,99900.84
2022-11-29T07:36:27.258Z,99908.69
2022-11-29T07:38:11.506Z,99904.34
2022-11-29T07:39:54.154Z,99895.66
2022-11-29T07:41:35.870Z,99899.16
2022-11-29T07:43:31.506Z,99885.22
2022-11-29T07:45:15.418Z,99906.13
2022-11-29T07:46:49.057Z,99905.28
2022-11-29T07:48:23.777Z,99902.69
2022-11-29T07:49:58.376Z,99886.13
2022-11-29T07:51:33.427Z,99892.25
2022-11-29T07:53:06.786Z,99894.00
2022-11-29T07:54:41.013Z,99902.69
2022-11-29T07:56:16.326Z,99908.78
2022-11-29T07:57:50.166Z,99900.94
2022-11-29T07:59:27.623Z,99899.19
2022-11-29T08:01:01.061Z,99902.69
2022-11-29T08:02:36.754Z,99911.41
2022-11-29T08:04:10.799Z,99908.78
2022-11-29T08:05:49.065Z,99902.72
2022-11-29T08:07:23.399Z,99914.91
2022-11-29T08:08:58.615Z,99910.56
2022-11-29T08:10:32.293Z,99911.44
2022-11-29T08:12:06.060Z,99909.72
2022-11-29T08:13:39.307Z,99913.19
2022-11-29T08:15:14.114Z,99910.59
2022-11-29T08:16:47.825Z,99916.66
2022-11-29T08:18:24.713Z,99918.41
2022-11-29T08:20:02.573Z,99914.94
2022-11-29T08:21:38.641Z,99902.72
2022-11-29T08:23:13.862Z,99906.16
2022-11-29T08:24:48.650Z,99901.81
2022-11-29T08:26:28.148Z,99898.31
2022-11-29T08:28:06.067Z,99904.44
2022-11-29T08:29:39.544Z,99901.81
2022-11-29T08:31:14.253Z,99913.16
2022-11-29T08:32:51.395Z,99903.56
2022-11-29T08:34:26.519Z,99914.03
2022-11-29T08:36:07.219Z,99913.19
2022-11-29T08:37:45.922Z,99917.53
2022-11-29T08:39:19.251Z,99896.59
2022-11-29T08:40:53.457Z,99897.50
2022-11-29T08:42:26.965Z,99911.44
2022-11-29T08:44:01.188Z,99907.97
2022-11-29T08:45:34.414Z,99899.25
2022-11-29T08:47:25.182Z,99901.88
2022-11-29T08:48:58.673Z,99912.34
2022-11-29T08:50:31.918Z,99908.00
2022-11-29T08:52:22.869Z,99903.63
2022-11-29T08:53:57.447Z,99909.72
2022-11-29T08:55:34.480Z,99902.75
2022-11-29T08:57:38.744Z,99903.63
2022-11-29T08:59:03.014Z,99911.47
2022-11-29T09:00:36.898Z,99901.03
2022-11-29T09:02:10.437Z,99903.63
2022-11-29T09:04:03.685Z,99894.03
2022-11-29T09:05:39.767Z,99887.94
2022-11-29T09:07:13.624Z,99892.31
2022-11-29T09:08:47.321Z,99877.47
2022-11-29T09:10:22.101Z,99885.31
2022-11-29T09:11:56.759Z,99877.47
2022-11-29T09:13:29.894Z,99888.81
2022-11-29T09:15:03.223Z,99887.94
2022-11-29T09:16:39.129Z,99892.28
2022-11-29T09:18:13.241Z,99880.09
2022-11-29T09:19:47.307Z,99876.59
2022-11-29T09:21:21.157Z,99885.31
2022-11-29T09:22:54.717Z,99881.84
2022-11-29T09:24:29.204Z,99878.34
2022-11-29T09:26:03.870Z,99879.22
2022-11-29T09:27:37.112Z,99880.09
2022-11-29T09:29:12.322Z,99875.72
2022-11-29T09:30:47.193Z,99875.72
2022-11-29T09:32:20.415Z,99874.88
2022-11-29T09:33:53.578Z,99867.03
2022-11-29T09:35:27.736Z,99872.25
2022-11-29T09:37:01.817Z,99880.09
2022-11-29T09:38:35.790Z,99860.91
2022-11-29T09:40:17.952Z,99866.16
2022-11-29T09:42:09.894Z,99865.25
2022-11-29T09:43:52.544Z,99859.19
2022-11-29T09:45:31.655Z,99863.50
2022-11-29T09:47:18.154Z,99859.16
2022-11-29T09:49:07.821Z,99856.53
2022-11-29T09:50:49.201Z,99852.19
2022-11-29T09:52:35.275Z,99852.16
2022-11-29T09:54:24.557Z,99843.44
2022-11-29T09:56:12.543Z,99845.19
2022-11-29T09:57:50.293Z,99853.00
2022-11-29T09:59:29.129Z,99846.91
2022-11-29T10:01:07.875Z,99831.25
2022-11-29T10:02:47.666Z,99834.72
2022-11-29T10:04:27.255Z,99827.75
2022-11-29T10:06:05.038Z,99831.25
2022-11-29T10:07:44.916Z,99835.59
2022-11-29T10:09:24.400Z,99832.16
2022-11-29T10:11:07.289Z,99830.41
2022-11-29T10:12:46.310Z,99829.53
2022-11-29T10:14:26.150Z,99824.34
2022-11-29T10:16:06.709Z,99830.41
2022-11-29T10:17:44.908Z,99826.09
2022-11-29T10:19:24.934Z,99820.84
2022-11-29T10:21:01.198Z,99827.78
2022-11-29T10:22:43.952Z,99826.06
2022-11-29T10:24:22.339Z,99819.09
2022-11-29T10:26:01.257Z,99820.84
2022-11-29T10:27:39.222Z,99822.59
2022-11-29T10:29:16.999Z,99822.59
2022-11-29T10:30:55.220Z,99820.81
2022-11-29T10:32:33.254Z,99827.78
2022-11-29T10:34:14.561Z,99819.94
2022-11-29T10:35:52.023Z,99819.94
2022-11-29T10:37:26.390Z,99824.31
2022-11-29T10:39:09.966Z,99817.34
2022-11-29T10:40:50.578Z,99826.06
2022-11-29T10:42:44.047Z,99806.91
2022-11-29T10:44:18.296Z,99811.25
2022-11-29T10:45:56.234Z,99801.69
2022-11-29T10:47:30.846Z,99817.34
2022-11-29T10:49:07.519Z,99817.34
2022-11-29T10:50:44.136Z,99819.97
2022-11-29T10:52:20.789Z,99812.13
2022-11-29T10:53:56.407Z,99811.25
2022-11-29T10:55:36.059Z,99815.59
2022-11-29T10:57:15.802Z,99806.03
2022-11-29T10:58:57.095Z,99813.88
2022-11-29T11:00:30.382Z,99801.63
2022-11-29T11:02:06.930Z,99801.63
2022-11-29T11:03:43.543Z,99799.94
2022-11-29T11:05:19.637Z,99806.91
2022-11-29T11:06:56.420Z,99812.13
2022-11-29T11:08:30.401Z,99807.75
2022-11-29T11:10:06.576Z,99800.81
2022-11-29T11:11:41.612Z,99805.16
2022-11-29T11:13:22.826Z,99798.19
2022-11-29T11:15:17.039Z,99805.16
2022-11-29T11:16:51.727Z,99800.78
2022-11-29T11:18:30.935Z,99803.41
2022-11-29T11:20:08.453Z,99808.63
2022-11-29T11:21:42.543Z,99810.38
2022-11-29T11:23:26.742Z,99811.25
2022-11-29T11:25:02.745Z,99807.75
2022-11-29T11:26:44.549Z,99810.38
2022-11-29T11:28:22.458Z,99807.75
2022-11-29T11:29:55.716Z,99810.38
2022-11-29T11:31:35.403Z,99809.47
2022-11-29T11:33:10.316Z,99810.38
2022-11-29T11:34:52.878Z,99808.63
2022-11-29T11:36:28.444Z,99807.78
2022-11-29T11:38:01.664Z,99799.06
2022-11-29T11:39:35.994Z,99806.91
2022-11-29T11:41:19.633Z,99810.38
2022-11-29T11:42:52.095Z,99807.75
2022-11-29T11:44:46.870Z,99808.63
2022-11-29T11:46:21.584Z,99805.13
2022-11-29T11:47:59.219Z,99803.41
2022-11-29T11:49:38.405Z,99808.63
2022-11-29T11:51:23.817Z,99803.41
2022-11-29T11:52:59.897Z,99807.75
2022-11-29T11:54:33.756Z,99808.63
2022-11-29T11:56:10.226Z,99810.38
2022-11-29T11:57:43.822Z,99810.38
2022-11-29T11:59:21.812Z,99813.88
2022-11-29T12:01:05.523Z,99811.25
2022-11-29T12:02:41.587Z,99804.28
2022-11-29T12:04:19.074Z,99803.41
2022-11-29T12:05:55.211Z,99812.13
2022-11-29T12:08:06.017Z,99803.41
2022-11-29T12:09:40.681Z,99799.91
2022-11-29T12:11:18.316Z,99805.13
2022-11-29T12:12:53.406Z,99807.75
2022-11-29T12:14:35.318Z,99804.25
2022-11-29T12:16:20.225Z,99792.94
2022-11-29T12:18:01.625Z,99792.06
2022-11-29T12:19:44.576Z,99791.19
2022-11-29T12:21:21.615Z,99798.16
2022-11-29T12:23:20.933Z,99787.69
2022-11-29T12:25:01.283Z,99785.06
2022-11-29T12:28:35.108Z,99792.91
2022-11-29T12:30:14.369Z,99782.47
2022-11-29T12:32:00.424Z,99789.41
2022-11-29T12:33:44.768Z,99791.19
2022-11-29T12:35:49.303Z,99784.22
2022-11-29T12:37:27.217Z,99784.22
2022-11-29T12:39:12.326Z,99787.69
2022-11-29T12:40:54.308Z,99788.56
2022-11-29T12:42:42.594Z,99787.69
2022-11-29T12:44:30.866Z,99794.66
2022-11-29T12:46:14.113Z,99784.19
2022-11-29T12:47:59.864Z,99787.66
2022-11-29T12:49:41.384Z,99791.16
2022-11-29T12:51:24.639Z,99793.78
2022-11-29T12:53:12.049Z,99791.16
2022-11-29T12:54:58.553Z,99790.25
2022-11-29T12:56:40.131Z,99783.31
2022-11-29T12:58:21.592Z,99785.88
2022-11-29T13:00:05.106Z,99787.66
2022-11-29T13:01:53.290Z,99788.50
2022-11-29T13:03:32.740Z,99789.38
2022-11-29T13:05:17.827Z,99791.16
2022-11-29T13:06:57.415Z,99789.38
2022-11-29T13:08:52.372Z,99792.88
2022-11-29T13:10:39.538Z,99805.13
2022-11-29T13:12:20.642Z,99785.06
2022-11-29T13:14:34.631Z,99794.66
2022-11-29T13:16:04.925Z,99793.81
2022-11-29T13:17:47.419Z,99801.66
2022-11-29T13:19:27.027Z,99800.75
2022-11-29T13:21:06.665Z,99792.91
2022-11-29T13:22:48.526Z,99796.41
2022-11-29T13:24:30.575Z,99805.13
2022-11-29T13:26:08.505Z,99792.91
2022-11-29T13:27:46.373Z,99799.03
2022-11-29T13:29:20.728Z,99807.75
2022-11-29T13:31:03.372Z,99796.41
2022-11-29T13:32:41.085Z,99799.91
2022-11-29T13:34:20.739Z,99805.13
2022-11-29T13:36:02.603Z,99796.44
2022-11-29T13:37:43.805Z,99801.66
2022-11-29T13:39:34.527Z,99805.16
2022-11-29T13:41:18.681Z,99792.09
2022-11-29T13:43:00.666Z,99795.56
2022-11-29T13:44:41.135Z,99794.72
2022-11-29T13:46:27.438Z,99795.56
2022-11-29T13:48:27.618Z,99789.47
2022-11-29T13:50:03.719Z,99791.22
2022-11-29T13:51:38.630Z,99796.44
2022-11-29T13:53:17.888Z,99798.19
2022-11-29T13:55:11.591Z,99803.44
2022-11-29T13:56:48.351Z,99801.69
2022-11-29T13:58:35.332Z,99789.50
2022-11-29T14:00:33.528Z,99799.94
2022-11-29T14:02:28.831Z,99799.94
2022-11-29T14:04:07.589Z,99808.66
2022-11-29T14:05:42.317Z,99810.38
2022-11-29T14:07:18.876Z,99824.34
2022-11-29T14:09:25.711Z,99827.81
2022-11-29T14:11:03.306Z,99818.22
2022-11-29T14:12:42.848Z,99813.88
2022-11-29T14:14:24.044Z,99824.31
2022-11-29T14:16:00.287Z,99821.72
2022-11-29T14:17:47.614Z,99827.81
2022-11-29T14:19:32.811Z,99825.19
2022-11-29T14:21:07.808Z,99831.28
2022-11-29T14:23:18.890Z,99833.88
2022-11-29T14:25:21.744Z,99830.41
2022-11-29T14:27:19.776Z,99835.63
2022-11-29T14:28:54.952Z,99825.16
2022-11-29T14:30:47.442Z,99838.22
2022-11-29T14:32:23.742Z,99839.97
2022-11-29T14:34:06.421Z,99824.28
2022-11-29T14:35:48.419Z,99835.63
2022-11-29T14:37:41.389Z,99833.00
2022-11-29T14:39:32.451Z,99822.56
2022-11-29T14:41:17.670Z,99837.34
2022-11-29T14:42:53.493Z,99837.34
2022-11-29T14:44:29.482Z,99841.72
2022-11-29T14:46:10.976Z,99842.59
2022-11-29T14:47:50.133Z,99841.72
2022-11-29T14:49:27.231Z,99839.06
2022-11-29T14:51:10.180Z,99818.16
2022-11-29T14:52:52.740Z,99836.44
2022-11-29T14:54:26.167Z,99832.94
2022-11-29T14:56:33.002Z,99836.44
2022-11-29T14:58:19.502Z,99839.94
2022-11-29T14:59:55.968Z,99835.59
2022-11-29T15:01:29.340Z,99828.63
2022-11-29T15:03:06.870Z,99829.47
2022-11-29T15:04:40.812Z,99833.84
2022-11-29T15:06:27.644Z,99821.66
2022-11-29T15:08:09.740Z,99834.72
2022-11-29T15:09:44.398Z,99832.09
2022-11-29T15:11:28.404Z,99839.06
2022-11-29T15:13:07.740Z,99846.91
2022-11-29T15:14:51.198Z,99841.66
2022-11-29T15:16:46.147Z,99840.78
2022-11-29T15:18:31.593Z,99842.56
2022-11-29T15:20:27.435Z,99841.66
2022-11-29T15:22:10.398Z,99827.75
2022-11-29T15:23:45.094Z,99832.94
2022-11-29T15:25:21.997Z,99843.41
2022-11-29T15:26:59.474Z,99849.50
2022-11-29T15:28:33.058Z,99851.22
2022-11-29T15:30:20.515Z,99841.66
2022-11-29T15:31:57.957Z,99844.28
2022-11-29T15:33:32.130Z,99850.34
2022-11-29T15:35:06.829Z,99851.19
2022-11-29T15:36:44.620Z,99818.91
2022-11-29T15:38:20.909Z,99846.81
2022-11-29T15:40:04.936Z,99852.06
2022-11-29T15:41:38.925Z,99848.56
2022-11-29T15:43:19.589Z,99855.50
2022-11-29T15:44:54.574Z,99845.03
2022-11-29T15:46:29.788Z,99851.13
2022-11-29T15:48:20.887Z,99855.47
2022-11-29T15:49:55.604Z,99850.25
2022-11-29T15:51:32.588Z,99864.19
2022-11-29T15:53:11.945Z,99848.47
2022-11-29T15:54:50.338Z,99858.06
2022-11-29T15:56:32.033Z,99865.88
2022-11-29T15:58:09.012Z,99862.41
2022-11-29T15:59:45.388Z,99856.28
2022-11-29T16:01:22.302Z,99842.34
2022-11-29T16:02:59.772Z,99853.69
2022-11-29T16:04:39.906Z,99861.53
2022-11-29T16:06:30.073Z,99850.22
2022-11-29T16:08:09.052Z,99861.59
2022-11-29T16:09:47.098Z,99858.97
2022-11-29T16:11:24.131Z,99862.44
2022-11-29T16:13:00.174Z,99860.72
2022-11-29T16:14:33.968Z,99861.56
2022-11-29T16:16:16.473Z,99862.47
2022-11-29T16:17:50.245Z,99864.19
2022-11-29T16:19:32.928Z,99855.47
2022-11-29T16:21:09.464Z,99878.13
2022-11-29T16:22:44.206Z,99872.00
2022-11-29T16:24:22.465Z,99873.78
2022-11-29T16:26:02.472Z,99857.22
2022-11-29T16:27:37.551Z,99872.91
2022-11-29T16:29:24.918Z,99864.19
2022-11-29T16:31:05.029Z,99862.50
2022-11-29T16:32:43.639Z,99864.22
2022-11-29T16:34:25.134Z,99861.63
2022-11-29T16:36:08.322Z,99864.19
2022-11-29T16:37:46.430Z,99859.88
2022-11-29T16:39:25.058Z,99856.38
2022-11-29T16:41:08.114Z,99868.56
2022-11-29T16:42:44.508Z,99871.16
2022-11-29T16:45:02.505Z,99871.16
2022-11-29T16:46:41.288Z,99865.09
2022-11-29T16:48:31.651Z,99876.41
2022-11-29T16:50:14.661Z,99879.91
2022-11-29T16:51:53.524Z,99873.78
2022-11-29T16:53:38.892Z,99877.28
2022-11-29T16:55:17.974Z,99873.78
2022-11-29T16:56:54.288Z,99876.38
2022-11-29T16:58:31.894Z,99880.75
2022-11-29T17:00:13.626Z,99874.69
2022-11-29T17:01:47.912Z,99888.59
2022-11-29T17:03:25.789Z,99883.38
2022-11-29T17:04:59.033Z,99876.41
2022-11-29T17:06:32.926Z,99883.38
2022-11-29T17:08:09.801Z,99879.00
2022-11-29T17:09:43.628Z,99883.38
2022-11-29T17:11:17.261Z,99883.38
2022-11-29T17:12:51.772Z,99879.03
2022-11-29T17:14:25.092Z,99880.75
2022-11-29T17:15:58.259Z,99865.91
2022-11-29T17:17:31.727Z,99879.84
2022-11-29T17:19:07.479Z,99877.25
2022-11-29T17:20:40.725Z,99879.84
2022-11-29T17:22:15.371Z,99884.19
2022-11-29T17:23:51.517Z,99881.59
2022-11-29T17:25:26.526Z,99874.63
2022-11-29T17:27:00.760Z,99877.22
2022-11-29T17:28:35.815Z,99874.63
2022-11-29T17:30:11.407Z,99879.84
2022-11-29T17:31:45.388Z,99871.97
2022-11-29T17:33:19.190Z,99878.91
2022-11-29T17:34:52.469Z,99872.78
2022-11-29T17:36:25.621Z,99871.00
2022-11-29T17:38:01.895Z,99882.28
2022-11-29T17:39:36.535Z,99884.03
2022-11-29T17:41:10.855Z,99876.22
2022-11-29T17:42:45.853Z,99882.31
2022-11-29T17:44:19.378Z,99872.78
2022-11-29T17:45:52.731Z,99875.38
2022-11-29T17:47:26.997Z,99879.72
2022-11-29T17:49:01.360Z,99884.97
2022-11-29T17:50:48.631Z,99877.13
2022-11-29T17:52:21.843Z,99885.84
2022-11-29T17:53:56.058Z,99888.44
2022-11-29T17:55:30.777Z,99883.25
2022-11-29T17:57:06.085Z,99883.25
2022-11-29T17:58:59.882Z,99894.56
2022-11-29T18:00:50.670Z,99884.97
2022-11-29T18:02:25.623Z,99864.91
2022-11-29T18:04:04.154Z,99886.72
2022-11-29T18:05:49.689Z,99893.69
2022-11-29T18:07:34.234Z,99895.44
2022-11-29T18:09:11.822Z,99896.31
2022-11-29T18:10:48.953Z,99892.84
2022-11-29T18:12:27.613Z,99890.25
2022-11-29T18:14:05.064Z,99892.88
2022-11-29T18:15:43.988Z,99894.56
2022-11-29T18:17:18.334Z,99888.50
2022-11-29T18:18:58.805Z,99887.59
2022-11-29T18:20:36.030Z,99883.25
2022-11-29T18:22:09.949Z,99891.97
2022-11-29T18:23:44.261Z,99884.13
2022-11-29T18:25:38.215Z,99892.84
2022-11-29T18:27:13.319Z,99892.84
2022-11-29T18:28:46.958Z,99885.03
2022-11-29T18:30:21.500Z,99897.19
2022-11-29T18:31:55.154Z,99890.25
2022-11-29T18:33:31.977Z,99887.63
2022-11-29T18:35:06.155Z,99894.59
2022-11-29T18:36:43.776Z,99887.66
2022-11-29T18:38:17.524Z,99895.47
2022-11-29T18:39:50.809Z,99890.25
2022-11-29T18:41:26.786Z,99901.56
2022-11-29T18:43:04.263Z,99898.94
2022-11-29T18:44:37.903Z,99899.81
2022-11-29T18:46:13.353Z,99898.06
2022-11-29T18:47:48.775Z,99895.50
2022-11-29T18:49:22.460Z,99900.72
2022-11-29T18:50:55.806Z,99899.88
2022-11-29T18:52:29.420Z,99900.72
2022-11-29T18:54:03.846Z,99905.97
2022-11-29T18:55:37.064Z,99900.72
2022-11-29T18:57:10.267Z,99904.19
2022-11-29T18:58:46.912Z,99900.72
2022-11-29T19:00:22.781Z,99898.09
2022-11-29T19:01:56.777Z,99905.09
2022-11-29T19:03:30.303Z,99902.47
2022-11-29T19:05:04.140Z,99900.72
2022-11-29T19:06:39.907Z,99905.94
2022-11-29T19:08:13.433Z,99905.09
2022-11-29T19:09:46.673Z,99903.34
2022-11-29T19:11:22.967Z,99906.84
2022-11-29T19:12:57.296Z,99912.91
2022-11-29T19:14:32.492Z,99912.94
2022-11-29T19:16:12.732Z,99912.06
2022-11-29T19:17:46.643Z,99899.91
2022-11-29T19:19:22.547Z,99903.41
2022-11-29T19:21:05.584Z,99899.91
2022-11-29T19:22:41.963Z,99904.28
2022-11-29T19:24:19.255Z,99899.03
2022-11-29T19:25:55.552Z,99907.78
2022-11-29T19:27:28.726Z,99906.03
2022-11-29T19:29:02.973Z,99909.50
2022-11-29T19:30:38.116Z,99907.78
2022-11-29T19:32:11.409Z,99909.50
2022-11-29T19:33:46.430Z,99913.84
2022-11-29T19:35:19.795Z,99907.78
2022-11-29T19:36:54.005Z,99900.78
2022-11-29T19:38:27.320Z,99885.06
2022-11-29T19:40:01.724Z,99900.78
2022-11-29T19:41:37.176Z,99905.13
2022-11-29T19:43:11.168Z,99901.63
2022-11-29T19:45:15.259Z,99896.41
2022-11-29T19:46:42.426Z,99903.38
2022-11-29T19:48:20.816Z,99901.66